sensor_id;sensor_type;location;lat;lon;timestamp;P1;durP1;ratioP1;P2;durP2;ratioP2
22606;SDS011;11470;20.968;105.834;2023-04-30T00:02:28;13.20;;;6.53;;
22606;SDS011;11470;20.968;105.834;2023-04-30T00:07:34;13.18;;;6.72;;
22606;SDS011;11470;20.968;105.834;2023-04-30T00:12:39;13.63;;;6.55;;
22606;SDS011;11470;20.968;105.834;2023-04-30T00:17:45;10.93;;;6.70;;
22606;SDS011;11470;20.968;105.834;2023-04-30T00:22:50;13.00;;;6.32;;
22606;SDS011;11470;20.968;105.834;2023-04-30T00:27:56;12.68;;;6.97;;
22606;SDS011;11470;20.968;105.834;2023-04-30T00:33:10;15.85;;;8.45;;
22606;SDS011;11470;20.968;105.834;2023-04-30T00:38:16;22.70;;;10.45;;
22606;SDS011;11470;20.968;105.834;2023-04-30T00:43:21;12.68;;;6.95;;
22606;SDS011;11470;20.968;105.834;2023-04-30T00:48:27;13.82;;;7.22;;
22606;SDS011;11470;20.968;105.834;2023-04-30T00:53:32;14.35;;;7.93;;
22606;SDS011;11470;20.968;105.834;2023-04-30T00:58:40;13.23;;;7.22;;
22606;SDS011;11470;20.968;105.834;2023-04-30T01:03:46;16.73;;;7.57;;
22606;SDS011;11470;20.968;105.834;2023-04-30T01:08:51;15.93;;;7.87;;
22606;SDS011;11470;20.968;105.834;2023-04-30T01:24:52;15.40;;;7.40;;
22606;SDS011;11470;20.968;105.834;2023-04-30T01:30:03;16.27;;;6.80;;
22606;SDS011;11470;20.968;105.834;2023-04-30T01:35:10;18.88;;;7.07;;
22606;SDS011;11470;20.968;105.834;2023-04-30T01:40:23;18.73;;;7.50;;
22606;SDS011;11470;20.968;105.834;2023-04-30T01:50:50;13.50;;;6.60;;
22606;SDS011;11470;20.968;105.834;2023-04-30T01:56:26;16.50;;;8.75;;
22606;SDS011;11470;20.968;105.834;2023-04-30T02:01:36;23.67;;;7.55;;
22606;SDS011;11470;20.968;105.834;2023-04-30T02:06:41;18.77;;;7.85;;
22606;SDS011;11470;20.968;105.834;2023-04-30T02:11:47;14.55;;;7.97;;
22606;SDS011;11470;20.968;105.834;2023-04-30T02:16:54;15.30;;;7.75;;
22606;SDS011;11470;20.968;105.834;2023-04-30T02:27:07;22.85;;;8.27;;
22606;SDS011;11470;20.968;105.834;2023-04-30T02:32:13;18.58;;;8.63;;
22606;SDS011;11470;20.968;105.834;2023-04-30T02:37:28;21.87;;;9.10;;
22606;SDS011;11470;20.968;105.834;2023-04-30T02:42:33;22.23;;;8.40;;
22606;SDS011;11470;20.968;105.834;2023-04-30T02:47:39;17.42;;;8.15;;
22606;SDS011;11470;20.968;105.834;2023-04-30T02:52:47;22.55;;;8.23;;
22606;SDS011;11470;20.968;105.834;2023-04-30T02:57:53;17.88;;;7.43;;
22606;SDS011;11470;20.968;105.834;2023-04-30T03:02:59;19.50;;;7.63;;
22606;SDS011;11470;20.968;105.834;2023-04-30T03:08:05;19.58;;;7.70;;
22606;SDS011;11470;20.968;105.834;2023-04-30T03:13:10;15.98;;;8.30;;
22606;SDS011;11470;20.968;105.834;2023-04-30T03:18:16;19.23;;;7.43;;
22606;SDS011;11470;20.968;105.834;2023-04-30T03:23:22;16.35;;;7.90;;
22606;SDS011;11470;20.968;105.834;2023-04-30T03:28:30;20.42;;;8.52;;
22606;SDS011;11470;20.968;105.834;2023-04-30T03:33:36;18.35;;;7.68;;
22606;SDS011;11470;20.968;105.834;2023-04-30T03:38:42;16.33;;;6.67;;
22606;SDS011;11470;20.968;105.834;2023-04-30T03:43:50;16.92;;;7.60;;
22606;SDS011;11470;20.968;105.834;2023-04-30T03:48:55;18.95;;;7.40;;
22606;SDS011;11470;20.968;105.834;2023-04-30T03:54:00;14.80;;;7.30;;
22606;SDS011;11470;20.968;105.834;2023-04-30T03:59:07;18.05;;;7.75;;
22606;SDS011;11470;20.968;105.834;2023-04-30T04:04:12;20.95;;;8.07;;
22606;SDS011;11470;20.968;105.834;2023-04-30T04:09:19;16.65;;;7.10;;
22606;SDS011;11470;20.968;105.834;2023-04-30T04:14:24;18.23;;;7.75;;
22606;SDS011;11470;20.968;105.834;2023-04-30T04:19:30;19.60;;;7.38;;
22606;SDS011;11470;20.968;105.834;2023-04-30T04:24:35;17.48;;;7.90;;
22606;SDS011;11470;20.968;105.834;2023-04-30T04:29:41;20.30;;;7.28;;
22606;SDS011;11470;20.968;105.834;2023-04-30T04:34:47;18.35;;;6.70;;
22606;SDS011;11470;20.968;105.834;2023-04-30T04:39:54;20.40;;;7.60;;
22606;SDS011;11470;20.968;105.834;2023-04-30T04:45:01;17.52;;;7.35;;
22606;SDS011;11470;20.968;105.834;2023-04-30T04:50:07;20.35;;;7.97;;
22606;SDS011;11470;20.968;105.834;2023-04-30T04:55:22;16.50;;;6.75;;
22606;SDS011;11470;20.968;105.834;2023-04-30T05:00:28;17.10;;;7.00;;
22606;SDS011;11470;20.968;105.834;2023-04-30T05:05:33;25.90;;;7.90;;
22606;SDS011;11470;20.968;105.834;2023-04-30T05:10:39;25.08;;;7.75;;
22606;SDS011;11470;20.968;105.834;2023-04-30T05:15:45;23.02;;;7.80;;
22606;SDS011;11470;20.968;105.834;2023-04-30T05:20:53;18.23;;;7.53;;
22606;SDS011;11470;20.968;105.834;2023-04-30T05:26:02;20.38;;;7.78;;
22606;SDS011;11470;20.968;105.834;2023-04-30T05:31:08;22.02;;;8.45;;
22606;SDS011;11470;20.968;105.834;2023-04-30T05:36:14;19.02;;;7.75;;
22606;SDS011;11470;20.968;105.834;2023-04-30T05:41:20;14.52;;;7.05;;
22606;SDS011;11470;20.968;105.834;2023-04-30T05:51:31;21.50;;;7.22;;
22606;SDS011;11470;20.968;105.834;2023-04-30T05:56:36;15.75;;;7.38;;
22606;SDS011;11470;20.968;105.834;2023-04-30T06:01:44;23.98;;;7.57;;
22606;SDS011;11470;20.968;105.834;2023-04-30T06:06:50;19.08;;;7.53;;
22606;SDS011;11470;20.968;105.834;2023-04-30T06:11:55;23.27;;;7.70;;
22606;SDS011;11470;20.968;105.834;2023-04-30T06:17:01;19.23;;;5.97;;
22606;SDS011;11470;20.968;105.834;2023-04-30T06:22:06;19.20;;;7.20;;
22606;SDS011;11470;20.968;105.834;2023-04-30T06:27:13;19.13;;;6.65;;
22606;SDS011;11470;20.968;105.834;2023-04-30T06:32:18;28.35;;;6.68;;
22606;SDS011;11470;20.968;105.834;2023-04-30T06:42:29;18.75;;;6.28;;
22606;SDS011;11470;20.968;105.834;2023-04-30T06:47:39;31.13;;;8.65;;
22606;SDS011;11470;20.968;105.834;2023-04-30T06:52:45;34.00;;;7.60;;
22606;SDS011;11470;20.968;105.834;2023-04-30T06:57:51;29.65;;;8.00;;
22606;SDS011;11470;20.968;105.834;2023-04-30T07:02:57;18.80;;;7.65;;
22606;SDS011;11470;20.968;105.834;2023-04-30T07:08:06;20.15;;;5.93;;
22606;SDS011;11470;20.968;105.834;2023-04-30T07:13:15;23.27;;;6.72;;
22606;SDS011;11470;20.968;105.834;2023-04-30T07:30:11;32.95;;;8.15;;
22606;SDS011;11470;20.968;105.834;2023-04-30T07:35:16;13.60;;;5.05;;
22606;SDS011;11470;20.968;105.834;2023-04-30T07:40:22;14.45;;;4.30;;
22606;SDS011;11470;20.968;105.834;2023-04-30T07:45:37;31.63;;;7.00;;
22606;SDS011;11470;20.968;105.834;2023-04-30T07:55:54;19.05;;;5.95;;
22606;SDS011;11470;20.968;105.834;2023-04-30T08:01:00;19.83;;;5.50;;
22606;SDS011;11470;20.968;105.834;2023-04-30T08:06:05;22.67;;;6.88;;
22606;SDS011;11470;20.968;105.834;2023-04-30T08:16:18;20.25;;;7.22;;
22606;SDS011;11470;20.968;105.834;2023-04-30T08:21:23;17.02;;;6.90;;
22606;SDS011;11470;20.968;105.834;2023-04-30T08:26:30;23.48;;;8.05;;
22606;SDS011;11470;20.968;105.834;2023-04-30T08:31:36;20.00;;;6.70;;
22606;SDS011;11470;20.968;105.834;2023-04-30T08:36:42;29.92;;;7.38;;
22606;SDS011;11470;20.968;105.834;2023-04-30T08:41:49;25.73;;;8.25;;
22606;SDS011;11470;20.968;105.834;2023-04-30T08:47:00;20.58;;;6.85;;
22606;SDS011;11470;20.968;105.834;2023-04-30T08:52:07;33.55;;;6.75;;
22606;SDS011;11470;20.968;105.834;2023-04-30T08:57:14;25.15;;;6.45;;
22606;SDS011;11470;20.968;105.834;2023-04-30T09:02:19;18.17;;;6.57;;
22606;SDS011;11470;20.968;105.834;2023-04-30T09:07:25;25.50;;;7.30;;
22606;SDS011;11470;20.968;105.834;2023-04-30T09:12:31;23.95;;;8.07;;
22606;SDS011;11470;20.968;105.834;2023-04-30T09:17:41;21.80;;;8.07;;
22606;SDS011;11470;20.968;105.834;2023-04-30T09:22:49;26.40;;;7.45;;
22606;SDS011;11470;20.968;105.834;2023-04-30T09:28:12;24.70;;;7.68;;
22606;SDS011;11470;20.968;105.834;2023-04-30T09:33:17;32.53;;;7.90;;
22606;SDS011;11470;20.968;105.834;2023-04-30T09:43:29;21.58;;;8.02;;
22606;SDS011;11470;20.968;105.834;2023-04-30T09:48:36;24.70;;;8.45;;
22606;SDS011;11470;20.968;105.834;2023-04-30T09:54:10;23.65;;;6.32;;
22606;SDS011;11470;20.968;105.834;2023-04-30T09:59:16;29.13;;;8.10;;
22606;SDS011;11470;20.968;105.834;2023-04-30T10:04:33;21.48;;;7.28;;
22606;SDS011;11470;20.968;105.834;2023-04-30T10:09:47;36.42;;;8.77;;
22606;SDS011;11470;20.968;105.834;2023-04-30T10:15:03;35.40;;;8.75;;
22606;SDS011;11470;20.968;105.834;2023-04-30T10:20:24;18.63;;;7.55;;
22606;SDS011;11470;20.968;105.834;2023-04-30T10:25:37;18.73;;;7.40;;
22606;SDS011;11470;20.968;105.834;2023-04-30T10:30:44;35.53;;;8.63;;
22606;SDS011;11470;20.968;105.834;2023-04-30T10:41:43;25.98;;;8.30;;
22606;SDS011;11470;20.968;105.834;2023-04-30T10:46:59;37.10;;;9.15;;
22606;SDS011;11470;20.968;105.834;2023-04-30T10:52:05;29.98;;;9.25;;
22606;SDS011;11470;20.968;105.834;2023-04-30T10:57:11;22.90;;;7.87;;
22606;SDS011;11470;20.968;105.834;2023-04-30T11:02:18;37.38;;;9.70;;
22606;SDS011;11470;20.968;105.834;2023-04-30T11:07:24;31.92;;;9.70;;
22606;SDS011;11470;20.968;105.834;2023-04-30T11:12:31;21.48;;;9.45;;
22606;SDS011;11470;20.968;105.834;2023-04-30T11:17:45;29.38;;;9.30;;
22606;SDS011;11470;20.968;105.834;2023-04-30T11:23:12;30.15;;;10.07;;
22606;SDS011;11470;20.968;105.834;2023-04-30T11:28:31;35.13;;;9.82;;
22606;SDS011;11470;20.968;105.834;2023-04-30T11:33:40;31.63;;;9.77;;
22606;SDS011;11470;20.968;105.834;2023-04-30T11:43:51;21.02;;;8.73;;
22606;SDS011;11470;20.968;105.834;2023-04-30T11:48:59;30.52;;;9.23;;
22606;SDS011;11470;20.968;105.834;2023-04-30T11:54:09;32.17;;;10.52;;
22606;SDS011;11470;20.968;105.834;2023-04-30T11:59:18;19.90;;;8.32;;
22606;SDS011;11470;20.968;105.834;2023-04-30T12:04:27;23.83;;;9.10;;
22606;SDS011;11470;20.968;105.834;2023-04-30T12:09:32;28.10;;;10.70;;
22606;SDS011;11470;20.968;105.834;2023-04-30T12:15:12;32.20;;;12.25;;
22606;SDS011;11470;20.968;105.834;2023-04-30T12:20:20;28.77;;;9.23;;
22606;SDS011;11470;20.968;105.834;2023-04-30T12:25:27;35.33;;;10.70;;
22606;SDS011;11470;20.968;105.834;2023-04-30T12:30:32;25.75;;;9.70;;
22606;SDS011;11470;20.968;105.834;2023-04-30T12:40:46;18.10;;;8.95;;
22606;SDS011;11470;20.968;105.834;2023-04-30T12:51:01;29.92;;;11.75;;
22606;SDS011;11470;20.968;105.834;2023-04-30T13:01:20;34.55;;;12.63;;
22606;SDS011;11470;20.968;105.834;2023-04-30T13:06:29;25.52;;;10.93;;
22606;SDS011;11470;20.968;105.834;2023-04-30T13:11:38;34.88;;;14.10;;
22606;SDS011;11470;20.968;105.834;2023-04-30T13:16:44;47.17;;;16.10;;
22606;SDS011;11470;20.968;105.834;2023-04-30T13:21:50;30.15;;;11.13;;
22606;SDS011;11470;20.968;105.834;2023-04-30T13:26:56;37.67;;;14.38;;
22606;SDS011;11470;20.968;105.834;2023-04-30T13:37:07;28.25;;;12.77;;
22606;SDS011;11470;20.968;105.834;2023-04-30T13:42:13;38.40;;;14.83;;
22606;SDS011;11470;20.968;105.834;2023-04-30T13:47:18;29.90;;;13.30;;
22606;SDS011;11470;20.968;105.834;2023-04-30T13:52:24;32.58;;;14.27;;
22606;SDS011;11470;20.968;105.834;2023-04-30T13:57:30;24.58;;;10.10;;
22606;SDS011;11470;20.968;105.834;2023-04-30T14:02:36;33.78;;;14.55;;
22606;SDS011;11470;20.968;105.834;2023-04-30T14:07:42;37.53;;;13.52;;
22606;SDS011;11470;20.968;105.834;2023-04-30T14:12:48;39.73;;;14.47;;
22606;SDS011;11470;20.968;105.834;2023-04-30T14:17:57;31.15;;;15.40;;
22606;SDS011;11470;20.968;105.834;2023-04-30T14:23:03;28.73;;;14.80;;
22606;SDS011;11470;20.968;105.834;2023-04-30T14:33:14;31.73;;;14.65;;
22606;SDS011;11470;20.968;105.834;2023-04-30T14:44:47;33.53;;;14.68;;
22606;SDS011;11470;20.968;105.834;2023-04-30T15:06:06;43.60;;;15.02;;
22606;SDS011;11470;20.968;105.834;2023-04-30T15:11:19;38.70;;;15.00;;
22606;SDS011;11470;20.968;105.834;2023-04-30T15:30:46;37.45;;;16.70;;
22606;SDS011;11470;20.968;105.834;2023-04-30T15:49:03;42.23;;;17.07;;
22606;SDS011;11470;20.968;105.834;2023-04-30T15:54:11;29.65;;;15.30;;
22606;SDS011;11470;20.968;105.834;2023-04-30T15:59:27;28.92;;;14.88;;
22606;SDS011;11470;20.968;105.834;2023-04-30T16:10:15;47.83;;;18.15;;
22606;SDS011;11470;20.968;105.834;2023-04-30T16:27:26;50.33;;;18.35;;
22606;SDS011;11470;20.968;105.834;2023-04-30T16:33:20;42.95;;;18.38;;
22606;SDS011;11470;20.968;105.834;2023-04-30T16:50:10;33.75;;;17.20;;
22606;SDS011;11470;20.968;105.834;2023-04-30T17:02:15;48.70;;;18.50;;
22606;SDS011;11470;20.968;105.834;2023-04-30T17:07:26;38.63;;;17.38;;
22606;SDS011;11470;20.968;105.834;2023-04-30T17:24:25;34.97;;;17.10;;
22606;SDS011;11470;20.968;105.834;2023-04-30T17:41:35;44.57;;;18.27;;
22606;SDS011;11470;20.968;105.834;2023-04-30T17:46:54;44.13;;;17.73;;
22606;SDS011;11470;20.968;105.834;2023-04-30T17:58:37;46.97;;;17.60;;
22606;SDS011;11470;20.968;105.834;2023-04-30T18:04:17;42.88;;;18.27;;
22606;SDS011;11470;20.968;105.834;2023-04-30T18:09:26;41.95;;;18.27;;
22606;SDS011;11470;20.968;105.834;2023-04-30T18:15:31;35.08;;;16.83;;
22606;SDS011;11470;20.968;105.834;2023-04-30T18:25:41;39.58;;;16.17;;
22606;SDS011;11470;20.968;105.834;2023-04-30T18:30:46;52.17;;;18.35;;
22606;SDS011;11470;20.968;105.834;2023-04-30T18:41:05;52.38;;;18.10;;
22606;SDS011;11470;20.968;105.834;2023-04-30T18:46:11;43.40;;;17.77;;
22606;SDS011;11470;20.968;105.834;2023-04-30T18:56:22;36.20;;;16.20;;
22606;SDS011;11470;20.968;105.834;2023-04-30T19:06:32;35.35;;;13.82;;
22606;SDS011;11470;20.968;105.834;2023-04-30T19:11:38;36.23;;;15.10;;
22606;SDS011;11470;20.968;105.834;2023-04-30T19:16:44;35.65;;;15.85;;
22606;SDS011;11470;20.968;105.834;2023-04-30T19:21:50;32.25;;;14.80;;
22606;SDS011;11470;20.968;105.834;2023-04-30T19:32:01;40.92;;;16.35;;
22606;SDS011;11470;20.968;105.834;2023-04-30T19:37:07;36.78;;;15.50;;
22606;SDS011;11470;20.968;105.834;2023-04-30T19:42:14;33.80;;;13.98;;
22606;SDS011;11470;20.968;105.834;2023-04-30T19:47:21;36.83;;;14.20;;
22606;SDS011;11470;20.968;105.834;2023-04-30T19:52:26;33.28;;;14.80;;
22606;SDS011;11470;20.968;105.834;2023-04-30T19:57:33;36.08;;;14.25;;
22606;SDS011;11470;20.968;105.834;2023-04-30T20:02:38;39.47;;;14.40;;
22606;SDS011;11470;20.968;105.834;2023-04-30T20:07:44;39.67;;;16.03;;
22606;SDS011;11470;20.968;105.834;2023-04-30T20:12:52;30.40;;;14.57;;
22606;SDS011;11470;20.968;105.834;2023-04-30T20:17:58;31.70;;;13.75;;
22606;SDS011;11470;20.968;105.834;2023-04-30T20:28:20;36.70;;;14.95;;
22606;SDS011;11470;20.968;105.834;2023-04-30T20:33:25;35.03;;;13.80;;
22606;SDS011;11470;20.968;105.834;2023-04-30T20:38:35;33.42;;;13.43;;
22606;SDS011;11470;20.968;105.834;2023-04-30T20:43:40;44.83;;;13.77;;
22606;SDS011;11470;20.968;105.834;2023-04-30T20:48:46;45.42;;;14.43;;
22606;SDS011;11470;20.968;105.834;2023-04-30T20:53:52;36.88;;;13.77;;
22606;SDS011;11470;20.968;105.834;2023-04-30T20:58:57;39.23;;;12.97;;
22606;SDS011;11470;20.968;105.834;2023-04-30T21:04:03;32.60;;;12.27;;
22606;SDS011;11470;20.968;105.834;2023-04-30T21:09:08;41.53;;;15.40;;
22606;SDS011;11470;20.968;105.834;2023-04-30T21:14:15;37.38;;;15.23;;
22606;SDS011;11470;20.968;105.834;2023-04-30T21:19:20;42.60;;;14.87;;
22606;SDS011;11470;20.968;105.834;2023-04-30T21:24:28;41.08;;;14.40;;
22606;SDS011;11470;20.968;105.834;2023-04-30T21:29:34;35.55;;;14.43;;
22606;SDS011;11470;20.968;105.834;2023-04-30T21:39:46;33.08;;;14.52;;
22606;SDS011;11470;20.968;105.834;2023-04-30T21:44:53;31.70;;;15.93;;
22606;SDS011;11470;20.968;105.834;2023-04-30T21:50:08;37.57;;;15.57;;
22606;SDS011;11470;20.968;105.834;2023-04-30T21:55:14;39.50;;;14.07;;
22606;SDS011;11470;20.968;105.834;2023-04-30T22:00:19;27.93;;;13.70;;
22606;SDS011;11470;20.968;105.834;2023-04-30T22:05:25;38.85;;;14.68;;
22606;SDS011;11470;20.968;105.834;2023-04-30T22:10:30;32.17;;;15.02;;
22606;SDS011;11470;20.968;105.834;2023-04-30T22:15:35;30.63;;;13.73;;
22606;SDS011;11470;20.968;105.834;2023-04-30T22:20:50;27.02;;;13.68;;
22606;SDS011;11470;20.968;105.834;2023-04-30T22:31:01;33.25;;;14.30;;
22606;SDS011;11470;20.968;105.834;2023-04-30T22:41:13;40.67;;;16.83;;
22606;SDS011;11470;20.968;105.834;2023-04-30T22:46:18;39.35;;;17.52;;
22606;SDS011;11470;20.968;105.834;2023-04-30T22:51:33;33.75;;;16.45;;
22606;SDS011;11470;20.968;105.834;2023-04-30T22:56:40;34.90;;;14.85;;
22606;SDS011;11470;20.968;105.834;2023-04-30T23:01:45;29.50;;;16.27;;
22606;SDS011;11470;20.968;105.834;2023-04-30T23:06:53;34.70;;;16.42;;
22606;SDS011;11470;20.968;105.834;2023-04-30T23:11:59;37.40;;;16.42;;
22606;SDS011;11470;20.968;105.834;2023-04-30T23:22:11;34.58;;;18.20;;
22606;SDS011;11470;20.968;105.834;2023-04-30T23:27:16;43.47;;;20.98;;
22606;SDS011;11470;20.968;105.834;2023-04-30T23:32:22;39.83;;;20.10;;
22606;SDS011;11470;20.968;105.834;2023-04-30T23:37:27;38.88;;;21.08;;
22606;SDS011;11470;20.968;105.834;2023-04-30T23:42:34;38.75;;;17.15;;
22606;SDS011;11470;20.968;105.834;2023-04-30T23:47:39;37.40;;;18.73;;
22606;SDS011;11470;20.968;105.834;2023-04-30T23:52:44;35.63;;;17.17;;
